Bremen, Germany

4:41 PM CEST on July 06, 2015 (GMT +0200)
Bremen | | Change Station
CLOSE
Current Station
Airport
Location: Bremen,
Elevation: 13 ft
Nearby Weather Stations

Elev 13 ft 53.05 °N, 8.79 °E | Updated 21 minutes ago

Scattered Clouds
Scattered Clouds
73 °F
Feels Like 73 °F
N
16
Wind Variable Wind from WSW

Today
High -- | Low -- °F
--% Chance of Precip.
Yesterday
High -- | Low -- °F
Precip. -- in
5:06 AM 9:51 PM
Waning Gibbous, 75% visible
Pressure 30.09 in
Visibility 6.2 miles
Clouds Scattered Clouds 4600 ft
Dew Point 48 °F
Humidity 41%
Rainfall 0.00 in
Snow Depth Not available.
UV 5 out of 12
Pollen Not available.
Air Quality Not available.
Flu Activity Not available.
METAR EDDW 061420Z 25014KT 9999 SCT046 23/09 Q1019 NOSIG

More Conditions Fewer Conditions

Pressure 30.09 in
Visibility 6.2 miles
Clouds Scattered Clouds 4600 ft
Dew Point 48 °F
Humidity 41%
Rainfall 0.00 in
Snow Depth Not available.
UV 5 out of 12
Pollen Not available.
Air Quality Not available.
Flu Activity Not available.
METAR EDDW 061420Z 25014KT 9999 SCT046 23/09 Q1019 NOSIG

More Conditions Fewer Conditions

10-Day Weather Forecast

×

Almanac

Astronomy

Jul. 06, 2015 Rise Set
Actual Time
Civil Twilight
Nautical Twilight
Astronomical Twilight
Moon
Length of Visible Light
Length of Day
Tomorrow will be .
, % of the Moon is Illuminated

Today's Extremes

Country Highs Country Lows

Community

WunderPhotos

Upload Photos

1,835,560 photos uploaded!

WunderBlogs® & News

Nearby

Air Quality

  Air Quality AQ Index Pollutant
Not available.

Snow Depth

Station Depth Elevation

Earthquake Activity

City Distance Mag. Time & Date
Minimum magnitude displayed is 2.5.

Coastal Water Temperatures

Place Temperature

Stations

Nearby Weather Stations

Station Location Temp. Windchill Dew Point Humidity Wind Precip. Elev Updated Type